Northford, Connecticut
Current Conditions -  °F | °C
As of 1:53 PM on Saturday 25 Oct 2014 (Local Time) from KMMK Reporting Station
Clear Clear  
Wind Chill: 65°   Ceiling: Unl
Heat Index: 65°   Visibility: 10mi
Dew Point: 39°   Wind: 10mph
Humidity: 39%   Direction: 260°W
Pressure: 29.69"   Gusts: NA
Location:  41.39°N, 72.79°W
Report Text: KMMK 251753Z AUTO 26009KT 10SM CLR 18/04 A2969 RMK AO2 SLP055 T01830039 10183 20039 58035 TSNO
Loading
Personal Weather Stations






























Interactive Weather Map
Tropical Storm Tracking
New forecast layout! Learn more

10-Day Weather Forecast

Advertisements
Track Severe Weather on mobile